Time;durP1;ratioP1;P1;durP2;ratioP2;P2;SDS_P1;SDS_P2;PMS_P1;PMS_P2;Temp;Humidity;BMP_temperature;BMP_pressure;BME280_temperature;BME280_humidity;BME280_pressure;Samples;Min_cycle;Max_cycle;Signal;HPM_P1;HPM_P2
2023/07/09 00:02:01;;;;;;;28.25;17.55;;;;;;;;;;4916744;28;21121;-66
2023/07/09 00:04:28;;;;;;;24.77;17.13;;;;;;;;;;4913812;28;20031;-65
2023/07/09 00:06:54;;;;;;;31.05;18.88;;;;;;;;;;4934607;28;20186;-66
2023/07/09 00:09:20;;;;;;;27.67;20.40;;;;;;;;;;4919203;28;20042;-66
2023/07/09 00:11:46;;;;;;;25.58;20.70;;;;;;;;;;4933600;28;20061;-65
2023/07/09 00:14:13;;;;;;;28.80;20.73;;;;;;;;;;4931835;28;20031;-65
2023/07/09 00:16:39;;;;;;;24.80;20.42;;;;;;;;;;4915015;28;20099;-66
2023/07/09 00:19:09;;;;;;;23.98;18.88;;;;;;;;;;4934876;28;21807;-66
2023/07/09 00:21:35;;;;;;;25.73;21.60;;;;;;;;;;4931998;28;20901;-66
2023/07/09 00:24:04;;;;;;;27.83;20.30;;;;;;;;;;4931250;28;20586;-65
2023/07/09 00:26:30;;;;;;;27.95;22.70;;;;;;;;;;4916080;28;20170;-65
2023/07/09 00:28:56;;;;;;;28.13;21.25;;;;;;;;;;4933106;28;20039;-67
2023/07/09 00:31:21;;;;;;;26.52;20.92;;;;;;;;;;4918828;28;20054;-65
2023/07/09 00:33:48;;;;;;;23.35;19.92;;;;;;;;;;4938164;28;22294;-66
2023/07/09 00:36:20;;;;;;;24.98;20.83;;;;;;;;;;4935502;28;20475;-66
2023/07/09 00:38:47;;;;;;;27.33;20.83;;;;;;;;;;4935284;28;20416;-66
2023/07/09 00:41:17;;;;;;;24.35;19.10;;;;;;;;;;4934066;28;20498;-66
2023/07/09 00:43:43;;;;;;;20.60;17.80;;;;;;;;;;4937344;28;20073;-65
2023/07/09 00:46:25;;;;;;;21.98;18.50;;;;;;;;;;4919296;28;20042;-66
2023/07/09 00:48:57;;;;;;;22.15;19.27;;;;;;;;;;4935212;28;20046;-66
2023/07/09 00:51:23;;;;;;;23.50;19.23;;;;;;;;;;4936301;28;20921;-65
2023/07/09 00:53:51;;;;;;;24.30;21.02;;;;;;;;;;4934947;28;20039;-66
2023/07/09 00:56:20;;;;;;;29.08;21.85;;;;;;;;;;4917467;28;20045;-66
2023/07/09 00:58:47;;;;;;;28.45;21.63;;;;;;;;;;4936834;28;20071;-65
2023/07/09 01:01:15;;;;;;;27.70;22.67;;;;;;;;;;4933230;28;20035;-66
2023/07/09 01:03:44;;;;;;;26.67;22.80;;;;;;;;;;4918957;28;20121;-65
2023/07/09 01:06:10;;;;;;;24.50;21.27;;;;;;;;;;4921446;28;20150;-66
2023/07/09 01:08:37;;;;;;;23.90;20.38;;;;;;;;;;4921713;28;20057;-65
2023/07/09 01:11:02;;;;;;;23.38;20.42;;;;;;;;;;4921299;28;20073;-66
2023/07/09 01:13:28;;;;;;;25.85;21.17;;;;;;;;;;4923032;28;20040;-66
2023/07/09 01:15:55;;;;;;;30.13;24.40;;;;;;;;;;4901082;28;20113;-65
2023/07/09 01:18:21;;;;;;;32.08;24.52;;;;;;;;;;4901822;28;20036;-66
2023/07/09 01:20:46;;;;;;;34.42;26.15;;;;;;;;;;4921166;28;20102;-65
2023/07/09 01:23:14;;;;;;;36.28;27.17;;;;;;;;;;4922239;28;20039;-70
2023/07/09 01:25:43;;;;;;;34.42;26.25;;;;;;;;;;4921043;28;20916;-70
2023/07/09 01:28:11;;;;;;;38.30;28.85;;;;;;;;;;4920529;28;20035;-71
2023/07/09 01:30:38;;;;;;;37.67;29.38;;;;;;;;;;4921637;28;20755;-71
2023/07/09 01:33:06;;;;;;;35.72;27.45;;;;;;;;;;4905374;28;20043;-71
2023/07/09 01:35:32;;;;;;;32.78;25.67;;;;;;;;;;4921537;28;20042;-71
2023/07/09 01:37:58;;;;;;;31.20;23.20;;;;;;;;;;4921738;28;20048;-71
2023/07/09 01:40:24;;;;;;;30.63;23.42;;;;;;;;;;4921022;28;20040;-70
2023/07/09 01:42:50;;;;;;;30.27;23.42;;;;;;;;;;4921884;28;20039;-71
2023/07/09 01:45:17;;;;;;;26.58;21.83;;;;;;;;;;4921096;28;20115;-71
2023/07/09 01:47:43;;;;;;;33.97;25.80;;;;;;;;;;4916496;28;20043;-72
2023/07/09 01:50:09;;;;;;;34.30;26.20;;;;;;;;;;4921497;28;21017;-72
2023/07/09 01:52:35;;;;;;;34.08;26.45;;;;;;;;;;4920942;28;20044;-71
2023/07/09 01:55:02;;;;;;;35.85;25.42;;;;;;;;;;4920770;28;20670;-71
2023/07/09 01:57:34;;;;;;;33.03;24.77;;;;;;;;;;4921506;28;20109;-69
2023/07/09 02:00:01;;;;;;;32.25;24.25;;;;;;;;;;4904806;28;20039;-71
2023/07/09 02:02:26;;;;;;;34.30;23.90;;;;;;;;;;4908882;28;20047;-71
2023/07/09 02:04:53;;;;;;;24.98;20.90;;;;;;;;;;4935220;28;20049;-70
2023/07/09 02:07:19;;;;;;;29.60;23.30;;;;;;;;;;4919577;28;20049;-71
2023/07/09 02:09:45;;;;;;;29.38;23.30;;;;;;;;;;4936432;28;20298;-70
2023/07/09 02:12:11;;;;;;;30.35;23.45;;;;;;;;;;4935490;28;20054;-71
2023/07/09 02:14:37;;;;;;;27.42;22.92;;;;;;;;;;4919228;28;20035;-71
2023/07/09 02:17:02;;;;;;;29.95;23.75;;;;;;;;;;4936432;28;20039;-71
2023/07/09 02:19:30;;;;;;;29.25;23.67;;;;;;;;;;4935759;28;20066;-71
2023/07/09 02:21:56;;;;;;;32.83;24.00;;;;;;;;;;4935105;28;20043;-71
2023/07/09 02:24:25;;;;;;;31.90;24.63;;;;;;;;;;4936043;28;20039;-70
2023/07/09 02:26:51;;;;;;;34.33;24.80;;;;;;;;;;4935135;28;20049;-70
2023/07/09 02:29:16;;;;;;;37.35;27.15;;;;;;;;;;4936440;28;21956;-70
2023/07/09 02:31:41;;;;;;;37.58;27.88;;;;;;;;;;4919461;28;20053;-69
2023/07/09 02:34:07;;;;;;;34.22;27.75;;;;;;;;;;4935280;28;20460;-70
2023/07/09 02:36:32;;;;;;;37.03;28.85;;;;;;;;;;4901687;28;20039;-70
2023/07/09 02:39:00;;;;;;;43.70;30.55;;;;;;;;;;4936952;28;20121;-70
2023/07/09 02:41:25;;;;;;;41.65;30.45;;;;;;;;;;4922364;28;20123;-72
2023/07/09 02:43:50;;;;;;;39.28;27.67;;;;;;;;;;4932866;28;20093;-71
2023/07/09 02:46:15;;;;;;;41.25;28.27;;;;;;;;;;4935100;28;20066;-70
2023/07/09 02:48:41;;;;;;;36.55;26.60;;;;;;;;;;4936952;28;20063;-66
2023/07/09 02:51:12;;;;;;;43.17;30.98;;;;;;;;;;4934973;28;20503;-67
2023/07/09 02:53:37;;;;;;;41.38;30.25;;;;;;;;;;4935671;28;20041;-67
2023/07/09 02:56:02;;;;;;;39.75;29.25;;;;;;;;;;4917509;28;20442;-67
2023/07/09 02:58:27;;;;;;;41.35;29.83;;;;;;;;;;4935839;28;20039;-67
2023/07/09 03:00:55;;;;;;;40.63;29.27;;;;;;;;;;4906664;28;20137;-67
2023/07/09 03:03:20;;;;;;;41.95;29.77;;;;;;;;;;4927134;28;20046;-67
2023/07/09 03:05:46;;;;;;;40.47;30.45;;;;;;;;;;4935031;28;20122;-66
2023/07/09 03:08:11;;;;;;;51.88;30.75;;;;;;;;;;4936985;28;20050;-67
2023/07/09 03:10:37;;;;;;;37.97;29.98;;;;;;;;;;4934333;28;20124;-67
2023/07/09 03:13:02;;;;;;;34.50;28.20;;;;;;;;;;4918623;28;20053;-67
2023/07/09 03:15:27;;;;;;;33.58;27.05;;;;;;;;;;4935951;28;20042;-67
2023/07/09 03:17:53;;;;;;;26.85;23.92;;;;;;;;;;4935646;28;20035;-66
2023/07/09 03:20:20;;;;;;;33.15;25.55;;;;;;;;;;4936461;28;20507;-67
2023/07/09 03:22:45;;;;;;;31.50;25.00;;;;;;;;;;4936004;28;20063;-67
2023/07/09 03:25:11;;;;;;;30.52;24.40;;;;;;;;;;4934885;28;20487;-66
2023/07/09 03:27:38;;;;;;;28.65;22.08;;;;;;;;;;4933870;28;20042;-66
2023/07/09 03:30:04;;;;;;;28.58;22.90;;;;;;;;;;4927076;28;20039;-66
2023/07/09 03:32:30;;;;;;;25.33;22.30;;;;;;;;;;4918018;28;20050;-67
2023/07/09 03:34:55;;;;;;;32.83;23.65;;;;;;;;;;4918825;28;20998;-66
2023/07/09 03:37:21;;;;;;;27.98;23.80;;;;;;;;;;4934761;28;20038;-66
2023/07/09 03:39:46;;;;;;;26.95;24.02;;;;;;;;;;4935742;28;20229;-66
2023/07/09 03:42:11;;;;;;;31.40;24.20;;;;;;;;;;4936259;28;20046;-66
2023/07/09 03:44:36;;;;;;;29.73;24.45;;;;;;;;;;4935345;28;20083;-66
2023/07/09 03:47:02;;;;;;;31.08;24.30;;;;;;;;;;4918454;28;20204;-66
2023/07/09 03:49:27;;;;;;;28.88;23.75;;;;;;;;;;4934734;28;20050;-66
2023/07/09 03:51:55;;;;;;;31.83;24.95;;;;;;;;;;4935883;28;22280;-67
2023/07/09 03:54:20;;;;;;;32.67;25.85;;;;;;;;;;4918520;28;20034;-67
2023/07/09 03:56:45;;;;;;;33.25;25.77;;;;;;;;;;4917917;28;20027;-66
2023/07/09 03:59:11;;;;;;;34.47;26.90;;;;;;;;;;4932011;28;20043;-65
2023/07/09 04:01:36;;;;;;;35.72;26.92;;;;;;;;;;4919478;28;20035;-65
2023/07/09 04:04:04;;;;;;;34.83;27.60;;;;;;;;;;4937684;28;20081;-66
2023/07/09 04:06:29;;;;;;;37.13;28.70;;;;;;;;;;4938974;28;20030;-65
2023/07/09 04:08:55;;;;;;;39.08;30.42;;;;;;;;;;4939593;28;20043;-66
2023/07/09 04:11:20;;;;;;;41.95;31.23;;;;;;;;;;4939988;28;20096;-68
2023/07/09 04:13:45;;;;;;;42.72;33.45;;;;;;;;;;4939294;28;20134;-65
2023/07/09 04:16:10;;;;;;;41.65;34.75;;;;;;;;;;4939079;28;21607;-66
2023/07/09 04:18:36;;;;;;;44.58;34.85;;;;;;;;;;4935836;28;20070;-66
2023/07/09 04:21:01;;;;;;;43.00;35.67;;;;;;;;;;4939818;28;20039;-66
2023/07/09 04:23:27;;;;;;;42.25;34.65;;;;;;;;;;4937164;28;20042;-66
2023/07/09 04:25:52;;;;;;;42.80;35.45;;;;;;;;;;4939679;28;20043;-66
2023/07/09 04:28:17;;;;;;;41.95;37.05;;;;;;;;;;4940379;28;20053;-66
2023/07/09 04:30:50;;;;;;;43.22;37.33;;;;;;;;;;4939066;28;20061;-66
2023/07/09 04:33:17;;;;;;;40.60;35.58;;;;;;;;;;4937921;28;20854;-66
2023/07/09 04:35:43;;;;;;;40.30;35.70;;;;;;;;;;4937957;28;20134;-71
2023/07/09 04:38:08;;;;;;;41.28;35.53;;;;;;;;;;4919086;28;20026;-70
2023/07/09 04:40:33;;;;;;;40.92;35.92;;;;;;;;;;4938207;28;20041;-70
2023/07/09 04:42:59;;;;;;;37.10;32.72;;;;;;;;;;4939745;28;20705;-70
2023/07/09 04:45:24;;;;;;;38.38;33.83;;;;;;;;;;4938713;28;20067;-71
2023/07/09 04:47:49;;;;;;;43.08;35.45;;;;;;;;;;4939475;28;20119;-71
2023/07/09 04:50:15;;;;;;;36.65;32.83;;;;;;;;;;4938987;28;20150;-70
2023/07/09 04:52:40;;;;;;;36.15;32.20;;;;;;;;;;4939322;28;20599;-70
2023/07/09 04:55:05;;;;;;;37.67;32.85;;;;;;;;;;4934194;28;20054;-70
2023/07/09 04:57:31;;;;;;;37.78;32.60;;;;;;;;;;4939778;28;20065;-70
2023/07/09 04:59:56;;;;;;;36.58;31.95;;;;;;;;;;4936690;28;20741;-71
2023/07/09 05:02:22;;;;;;;37.78;32.30;;;;;;;;;;4933051;28;20077;-71
2023/07/09 05:04:48;;;;;;;39.08;34.78;;;;;;;;;;4937053;28;20061;-70
2023/07/09 05:07:13;;;;;;;37.97;33.92;;;;;;;;;;4939052;28;20047;-70
2023/07/09 05:09:38;;;;;;;34.35;29.00;;;;;;;;;;4939780;28;20531;-67
2023/07/09 05:12:04;;;;;;;38.20;33.97;;;;;;;;;;4937876;28;20054;-67
2023/07/09 05:14:29;;;;;;;34.00;28.55;;;;;;;;;;4935696;28;20049;-67
2023/07/09 05:16:54;;;;;;;31.58;28.17;;;;;;;;;;4907641;28;20042;-69
2023/07/09 05:19:22;;;;;;;31.38;26.80;;;;;;;;;;4938968;28;20203;-67
2023/07/09 05:21:47;;;;;;;29.25;26.15;;;;;;;;;;4938999;28;20031;-67
2023/07/09 05:24:12;;;;;;;30.58;25.65;;;;;;;;;;4939197;28;20043;-69
2023/07/09 05:26:37;;;;;;;29.73;26.52;;;;;;;;;;4937531;28;20042;-68
2023/07/09 05:29:04;;;;;;;30.70;25.67;;;;;;;;;;4914343;28;20062;-67
2023/07/09 05:31:30;;;;;;;28.90;25.67;;;;;;;;;;4936975;28;20043;-67
2023/07/09 05:33:55;;;;;;;31.55;25.63;;;;;;;;;;4937585;28;20192;-68
2023/07/09 05:36:20;;;;;;;29.60;25.77;;;;;;;;;;4936950;28;20043;-68
2023/07/09 05:38:46;;;;;;;28.38;25.30;;;;;;;;;;4935791;28;20043;-68
2023/07/09 05:41:12;;;;;;;27.67;24.48;;;;;;;;;;4935729;28;20507;-66
2023/07/09 05:43:37;;;;;;;28.77;25.63;;;;;;;;;;4937063;28;20039;-68
2023/07/09 05:46:04;;;;;;;27.45;24.05;;;;;;;;;;4916417;28;20035;-67
2023/07/09 05:48:30;;;;;;;29.83;25.85;;;;;;;;;;4935774;28;20034;-67
2023/07/09 05:50:55;;;;;;;26.25;23.50;;;;;;;;;;4936395;28;20605;-68
2023/07/09 05:53:21;;;;;;;28.45;25.33;;;;;;;;;;4936396;28;22196;-68
2023/07/09 05:55:46;;;;;;;27.65;22.25;;;;;;;;;;4935940;28;20034;-68
2023/07/09 05:58:12;;;;;;;25.75;21.88;;;;;;;;;;4934930;28;20129;-68
2023/07/09 06:00:37;;;;;;;24.70;21.85;;;;;;;;;;4934555;28;20166;-67
2023/07/09 06:03:07;;;;;;;26.45;23.52;;;;;;;;;;4934478;28;20922;-67
2023/07/09 06:05:33;;;;;;;25.60;22.13;;;;;;;;;;4933571;28;20035;-67
2023/07/09 06:07:58;;;;;;;25.45;22.73;;;;;;;;;;4914778;28;20043;-68
2023/07/09 06:10:23;;;;;;;27.83;24.05;;;;;;;;;;4935183;28;20733;-68
2023/07/09 06:12:48;;;;;;;27.77;22.50;;;;;;;;;;4934398;28;20055;-68
2023/07/09 06:15:14;;;;;;;26.20;22.25;;;;;;;;;;4916646;28;20093;-71
2023/07/09 06:17:39;;;;;;;23.70;20.05;;;;;;;;;;4932041;28;20039;-71
2023/07/09 06:20:05;;;;;;;25.17;21.60;;;;;;;;;;4935663;28;20114;-72
2023/07/09 06:22:30;;;;;;;22.65;18.45;;;;;;;;;;4923337;28;20039;-71
2023/07/09 06:24:55;;;;;;;21.63;17.27;;;;;;;;;;4936009;28;20342;-71
2023/07/09 06:27:21;;;;;;;20.40;16.80;;;;;;;;;;4936529;28;20039;-71
2023/07/09 06:29:46;;;;;;;18.65;16.60;;;;;;;;;;4916048;28;22096;-72
2023/07/09 06:32:12;;;;;;;19.23;17.23;;;;;;;;;;4934621;28;20069;-71
2023/07/09 06:34:37;;;;;;;19.83;16.42;;;;;;;;;;4915227;28;20031;-70
2023/07/09 06:37:04;;;;;;;22.08;16.10;;;;;;;;;;4935724;28;20202;-70
2023/07/09 06:39:30;;;;;;;17.70;15.52;;;;;;;;;;4916066;28;20047;-71
2023/07/09 06:41:56;;;;;;;19.80;15.13;;;;;;;;;;4934612;28;20031;-71
2023/07/09 06:44:21;;;;;;;19.52;15.93;;;;;;;;;;4915979;28;20101;-72
2023/07/09 06:46:47;;;;;;;18.10;16.05;;;;;;;;;;4934557;28;20392;-73
2023/07/09 06:49:13;;;;;;;17.67;15.63;;;;;;;;;;4935324;28;20127;-71
2023/07/09 06:51:40;;;;;;;17.77;15.20;;;;;;;;;;4935237;28;20069;-71
2023/07/09 06:54:08;;;;;;;18.23;15.30;;;;;;;;;;4930548;28;20051;-68
2023/07/09 06:56:34;;;;;;;20.25;13.60;;;;;;;;;;4930684;28;20267;-68
2023/07/09 06:58:59;;;;;;;22.52;15.65;;;;;;;;;;4933415;28;20062;-69
2023/07/09 07:01:27;;;;;;;16.25;13.10;;;;;;;;;;4929965;28;20216;-69
2023/07/09 07:03:52;;;;;;;15.90;12.25;;;;;;;;;;4933640;28;20369;-68
2023/07/09 07:06:17;;;;;;;15.93;12.18;;;;;;;;;;4933320;28;20059;-68
2023/07/09 07:08:42;;;;;;;13.32;10.65;;;;;;;;;;4933231;28;20039;-68
2023/07/09 07:11:08;;;;;;;17.40;11.80;;;;;;;;;;4932297;28;20338;-68
2023/07/09 07:13:37;;;;;;;13.57;10.38;;;;;;;;;;4934001;28;20375;-67
2023/07/09 07:16:04;;;;;;;13.32;11.05;;;;;;;;;;4933441;28;20121;-67
2023/07/09 07:18:30;;;;;;;12.02;10.68;;;;;;;;;;4932524;28;20066;-70
2023/07/09 07:20:55;;;;;;;14.93;10.32;;;;;;;;;;4934474;28;20383;-68
2023/07/09 07:23:20;;;;;;;13.50;9.48;;;;;;;;;;4932878;28;20039;-67
2023/07/09 07:25:46;;;;;;;15.80;10.10;;;;;;;;;;4934193;28;20065;-67
2023/07/09 07:28:11;;;;;;;14.63;9.60;;;;;;;;;;4930889;28;21610;-67
2023/07/09 07:30:37;;;;;;;14.65;8.98;;;;;;;;;;4931335;28;20035;-69
2023/07/09 07:33:02;;;;;;;12.52;8.40;;;;;;;;;;4933979;28;20786;-69
2023/07/09 07:35:27;;;;;;;12.27;7.32;;;;;;;;;;4929577;28;20034;-69
2023/07/09 07:37:55;;;;;;;10.77;7.07;;;;;;;;;;4914695;28;20117;-67
2023/07/09 07:40:21;;;;;;;9.15;7.43;;;;;;;;;;4916789;28;20039;-68
2023/07/09 07:42:46;;;;;;;11.50;7.25;;;;;;;;;;4931117;28;20054;-69
2023/07/09 07:45:14;;;;;;;12.00;7.78;;;;;;;;;;4932077;28;20666;-68
2023/07/09 07:47:40;;;;;;;11.73;7.40;;;;;;;;;;4934244;28;20032;-68
2023/07/09 07:50:06;;;;;;;10.93;7.75;;;;;;;;;;4934513;28;20508;-68
2023/07/09 07:52:32;;;;;;;9.70;7.18;;;;;;;;;;4934049;28;20089;-68
2023/07/09 07:55:00;;;;;;;10.88;6.93;;;;;;;;;;4933226;28;20653;-68
2023/07/09 07:57:28;;;;;;;8.35;5.70;;;;;;;;;;4935840;28;20094;-67
2023/07/09 07:59:53;;;;;;;9.73;5.35;;;;;;;;;;4935610;28;20077;-69
2023/07/09 08:02:18;;;;;;;9.00;5.63;;;;;;;;;;4915408;28;20559;-69
2023/07/09 08:04:46;;;;;;;8.82;5.15;;;;;;;;;;4930585;28;20042;-68
2023/07/09 08:07:12;;;;;;;9.10;4.80;;;;;;;;;;4931920;28;20039;-74
2023/07/09 08:09:38;;;;;;;10.00;4.90;;;;;;;;;;4934901;28;20043;-68
2023/07/09 08:12:09;;;;;;;8.73;4.45;;;;;;;;;;4935712;28;20044;-68
2023/07/09 08:14:34;;;;;;;;;;;;;;;;;;4917507;28;20050;-68
2023/07/09 08:17:00;;;;;;;7.33;3.60;;;;;;;;;;4933851;28;19914;-69
2023/07/09 08:19:25;;;;;;;7.03;3.35;;;;;;;;;;4934031;28;20149;-69
2023/07/09 08:21:50;;;;;;;5.75;3.45;;;;;;;;;;4935355;28;20817;-68
2023/07/09 08:24:15;;;;;;;5.13;3.00;;;;;;;;;;4934726;28;20039;-69
2023/07/09 08:26:41;;;;;;;5.93;2.60;;;;;;;;;;4934432;28;20066;-67
2023/07/09 08:29:08;;;;;;;7.35;3.15;;;;;;;;;;4935887;28;20051;-68
2023/07/09 08:31:34;;;;;;;5.40;3.10;;;;;;;;;;4935304;28;20640;-68
2023/07/09 08:33:59;;;;;;;6.60;3.25;;;;;;;;;;4917483;28;20031;-68
2023/07/09 08:36:24;;;;;;;6.05;2.80;;;;;;;;;;4935328;28;20049;-69
2023/07/09 08:38:50;;;;;;;6.10;2.50;;;;;;;;;;4933272;28;20734;-67
2023/07/09 08:41:15;;;;;;;8.02;2.92;;;;;;;;;;4917155;28;20118;-68
2023/07/09 08:43:51;;;;;;;6.47;2.83;;;;;;;;;;4934060;28;21038;-68
2023/07/09 08:46:19;;;;;;;5.28;2.80;;;;;;;;;;4933902;28;20039;-68
2023/07/09 08:48:47;;;;;;;5.45;2.58;;;;;;;;;;4919758;28;20152;-67
2023/07/09 08:51:22;;;;;;;6.13;2.60;;;;;;;;;;4919640;28;20039;-67
2023/07/09 08:54:00;;;;;;;5.88;3.00;;;;;;;;;;4936803;28;20165;-67
2023/07/09 08:56:26;;;;;;;5.65;2.60;;;;;;;;;;4937812;28;20035;-67
2023/07/09 08:58:53;;;;;;;6.90;2.80;;;;;;;;;;4938086;28;21509;-67
2023/07/09 09:01:20;;;;;;;8.38;2.90;;;;;;;;;;4907642;28;20035;-66
2023/07/09 09:03:49;;;;;;;7.60;2.50;;;;;;;;;;4933864;28;20122;-64
2023/07/09 09:06:16;;;;;;;4.60;2.10;;;;;;;;;;4934081;28;20120;-65
2023/07/09 09:08:51;;;;;;;6.00;2.38;;;;;;;;;;4934934;28;20041;-67
2023/07/09 09:11:16;;;;;;;7.35;3.13;;;;;;;;;;4935777;28;20538;-66
2023/07/09 09:13:43;;;;;;;7.13;3.00;;;;;;;;;;4936158;28;20037;-66
2023/07/09 09:16:18;;;;;;;7.60;2.95;;;;;;;;;;4935180;28;20361;-68
2023/07/09 09:18:44;;;;;;;8.77;3.97;;;;;;;;;;4917378;28;20198;-66
2023/07/09 09:21:29;;;;;;;10.65;3.20;;;;;;;;;;4920271;28;20504;-69
2023/07/09 09:23:59;;;;;;;8.30;3.40;;;;;;;;;;4915973;28;20131;-67
2023/07/09 09:26:30;;;;;;;9.35;3.05;;;;;;;;;;4934955;28;20043;-67
2023/07/09 09:28:55;;;;;;;5.95;2.90;;;;;;;;;;4937222;28;20563;-67
2023/07/09 09:31:21;;;;;;;5.93;2.50;;;;;;;;;;4932787;28;20039;-67
2023/07/09 09:33:48;;;;;;;8.20;2.65;;;;;;;;;;4935211;28;20162;-67
2023/07/09 09:36:17;;;;;;;5.13;2.80;;;;;;;;;;4935601;28;20449;-67
2023/07/09 09:38:45;;;;;;;6.97;2.60;;;;;;;;;;4915850;28;20098;-67
2023/07/09 09:41:18;;;;;;;7.45;2.42;;;;;;;;;;4936612;28;20105;-67
2023/07/09 09:43:45;;;;;;;8.40;2.80;;;;;;;;;;4932813;28;20563;-66
2023/07/09 09:46:20;;;;;;;8.48;2.55;;;;;;;;;;4935312;28;20042;-66
2023/07/09 09:48:49;;;;;;;4.25;2.45;;;;;;;;;;4917154;28;20218;-67
2023/07/09 09:51:17;;;;;;;6.68;2.80;;;;;;;;;;4935451;28;20027;-67
2023/07/09 09:53:55;;;;;;;6.60;2.80;;;;;;;;;;4934818;28;20121;-68
2023/07/09 09:56:33;;;;;;;7.00;2.90;;;;;;;;;;4935137;28;20043;-68
2023/07/09 09:59:02;;;;;;;6.32;2.58;;;;;;;;;;4934009;28;20292;-68
2023/07/09 10:01:29;;;;;;;6.80;2.22;;;;;;;;;;4933460;28;22858;-67
2023/07/09 10:03:56;;;;;;;6.18;2.28;;;;;;;;;;4934023;28;20043;-68
2023/07/09 10:06:30;;;;;;;6.63;2.50;;;;;;;;;;4932246;28;20397;-68
2023/07/09 10:09:12;;;;;;;5.00;2.13;;;;;;;;;;4915481;28;20149;-70
2023/07/09 10:11:40;;;;;;;5.30;1.95;;;;;;;;;;4930074;28;20322;-68
2023/07/09 10:14:13;;;;;;;4.05;2.20;;;;;;;;;;4914899;28;20058;-67
2023/07/09 10:16:41;;;;;;;4.18;1.90;;;;;;;;;;4931085;28;20038;-68
2023/07/09 10:19:25;;;;;;;4.47;2.15;;;;;;;;;;4929539;28;20117;-66
2023/07/09 10:21:52;;;;;;;3.10;1.50;;;;;;;;;;4931607;28;20130;-67
2023/07/09 10:24:24;;;;;;;4.22;1.80;;;;;;;;;;4935381;28;20026;-67
2023/07/09 10:27:08;;;;;;;5.03;1.90;;;;;;;;;;4930629;28;20082;-68
2023/07/09 10:29:33;;;;;;;3.88;1.90;;;;;;;;;;4932006;28;20488;-68
2023/07/09 10:32:09;;;;;;;4.40;2.20;;;;;;;;;;4934701;28;20058;-68
2023/07/09 10:34:41;;;;;;;4.15;2.17;;;;;;;;;;4934197;28;20035;-66
2023/07/09 10:37:09;;;;;;;7.10;2.30;;;;;;;;;;4932451;28;20049;-66
2023/07/09 10:39:37;;;;;;;5.90;2.10;;;;;;;;;;4930951;28;20370;-67
2023/07/09 10:42:07;;;;;;;6.03;2.55;;;;;;;;;;4933092;28;20049;-66
2023/07/09 10:44:34;;;;;;;5.63;2.10;;;;;;;;;;4933707;28;20038;-67
2023/07/09 10:47:14;;;;;;;6.47;2.45;;;;;;;;;;4931978;28;20760;-66
2023/07/09 10:49:41;;;;;;;6.93;2.42;;;;;;;;;;4929749;28;21018;-67
2023/07/09 10:52:09;;;;;;;5.13;2.42;;;;;;;;;;4915361;28;20113;-65
2023/07/09 10:54:41;;;;;;;3.83;2.10;;;;;;;;;;4933956;28;20649;-68
2023/07/09 10:57:14;;;;;;;3.50;1.92;;;;;;;;;;4933129;28;20043;-68
2023/07/09 10:59:40;;;;;;;4.07;2.30;;;;;;;;;;4933450;28;20289;-68
2023/07/09 11:05:03;;;;;;;7.32;2.25;;;;;;;;;;5038332;27;20453;-67
2023/07/09 11:07:35;;;;;;;7.67;2.60;;;;;;;;;;5032640;28;20035;-66
2023/07/09 11:10:02;;;;;;;8.75;2.80;;;;;;;;;;5030700;28;20516;-66
2023/07/09 11:12:35;;;;;;;9.20;2.72;;;;;;;;;;5046932;28;20040;-67
2023/07/09 11:15:10;;;;;;;6.20;2.30;;;;;;;;;;5032209;28;22174;-66
2023/07/09 11:17:37;;;;;;;6.97;2.83;;;;;;;;;;5026849;28;20497;-66
2023/07/09 11:20:15;;;;;;;6.97;2.85;;;;;;;;;;5029715;28;20099;-67
2023/07/09 11:22:41;;;;;;;7.55;3.13;;;;;;;;;;5032770;28;20127;-67
2023/07/09 11:25:06;;;;;;;5.65;2.70;;;;;;;;;;5030377;28;20330;-66
2023/07/09 11:27:31;;;;;;;5.28;2.75;;;;;;;;;;5027007;28;20215;-67
2023/07/09 11:30:05;;;;;;;6.88;2.38;;;;;;;;;;5028760;28;20033;-67
2023/07/09 11:32:30;;;;;;;6.53;2.63;;;;;;;;;;5027756;28;20029;-68
2023/07/09 11:35:06;;;;;;;8.95;2.92;;;;;;;;;;5023935;28;20044;-68
2023/07/09 11:37:31;;;;;;;12.18;3.00;;;;;;;;;;5024273;28;20574;-68
2023/07/09 11:40:03;;;;;;;8.52;3.28;;;;;;;;;;5009841;28;20200;-68
2023/07/09 11:42:32;;;;;;;8.75;2.85;;;;;;;;;;5019843;28;20039;-66
2023/07/09 11:44:58;;;;;;;9.93;3.13;;;;;;;;;;5019260;28;20033;-67
2023/07/09 11:47:23;;;;;;;12.45;4.28;;;;;;;;;;5011364;28;20163;-68
2023/07/09 11:49:59;;;;;;;7.60;3.08;;;;;;;;;;5011639;28;20034;-68
2023/07/09 11:52:28;;;;;;;10.20;3.70;;;;;;;;;;5014194;28;20566;-66
2023/07/09 11:54:54;;;;;;;8.65;3.15;;;;;;;;;;5030299;28;20068;-67
2023/07/09 11:57:19;;;;;;;8.57;3.22;;;;;;;;;;5031914;28;20788;-67
2023/07/09 11:59:47;;;;;;;9.40;3.63;;;;;;;;;;5030665;28;20032;-67
2023/07/09 12:02:21;;;;;;;9.27;3.47;;;;;;;;;;5046998;28;20038;-67
2023/07/09 12:04:50;;;;;;;9.85;3.85;;;;;;;;;;5026287;28;20048;-66
2023/07/09 12:07:16;;;;;;;9.50;3.90;;;;;;;;;;5028726;28;20071;-66
2023/07/09 12:09:45;;;;;;;8.63;4.43;;;;;;;;;;5044153;28;20040;-68
2023/07/09 12:12:21;;;;;;;11.63;4.82;;;;;;;;;;5014687;28;20056;-67
2023/07/09 12:14:47;;;;;;;10.02;5.32;;;;;;;;;;5007018;28;20075;-67
2023/07/09 12:17:12;;;;;;;10.07;5.38;;;;;;;;;;4996980;28;20034;-68
2023/07/09 12:19:38;;;;;;;11.45;5.75;;;;;;;;;;5026890;28;20041;-67
2023/07/09 12:22:06;;;;;;;10.77;6.40;;;;;;;;;;4996981;28;20029;-68
2023/07/09 12:24:36;;;;;;;11.68;6.85;;;;;;;;;;4996362;28;20041;-67
2023/07/09 12:27:05;;;;;;;17.90;6.75;;;;;;;;;;4997540;28;20048;-67
2023/07/09 12:29:39;;;;;;;13.60;7.47;;;;;;;;;;4995849;28;20526;-68
2023/07/09 12:32:15;;;;;;;19.88;7.80;;;;;;;;;;5012231;28;20029;-67
2023/07/09 12:34:41;;;;;;;24.15;7.10;;;;;;;;;;4997587;28;20517;-66
2023/07/09 12:37:17;;;;;;;24.40;6.32;;;;;;;;;;4998997;28;20042;-69
2023/07/09 12:39:43;;;;;;;22.10;5.97;;;;;;;;;;5026631;28;20096;-67
2023/07/09 12:42:19;;;;;;;27.15;6.07;;;;;;;;;;4997903;28;20037;-69
2023/07/09 12:44:47;;;;;;;32.67;6.85;;;;;;;;;;4996127;28;20153;-66
2023/07/09 12:47:13;;;;;;;26.40;6.57;;;;;;;;;;5008585;28;20037;-69
2023/07/09 12:49:40;;;;;;;41.63;8.02;;;;;;;;;;5017982;28;20037;-69
2023/07/09 12:52:24;;;;;;;34.25;8.00;;;;;;;;;;5014272;28;20040;-67
2023/07/09 12:54:56;;;;;;;29.20;7.13;;;;;;;;;;5017904;28;20037;-67
2023/07/09 12:57:21;;;;;;;32.30;7.30;;;;;;;;;;4996597;28;21044;-65
2023/07/09 12:59:47;;;;;;;31.20;8.60;;;;;;;;;;5015471;28;20041;-69
2023/07/09 13:02:19;;;;;;;34.35;9.35;;;;;;;;;;5013549;28;20141;-69
2023/07/09 13:04:44;;;;;;;;;;;;;;;;;;5007628;28;20053;-66
2023/07/09 13:07:25;;;;;;;31.63;11.83;;;;;;;;;;5000350;28;19932;-68
2023/07/09 13:09:55;;;;;;;31.65;12.57;;;;;;;;;;5025061;28;20742;-67
2023/07/09 13:12:27;;;;;;;31.07;11.80;;;;;;;;;;4995778;28;21014;-69
2023/07/09 13:14:53;;;;;;;30.75;12.57;;;;;;;;;;5008423;28;20276;-67
2023/07/09 13:17:18;;;;;;;31.38;11.80;;;;;;;;;;5014437;28;20041;-66
2023/07/09 13:19:44;;;;;;;27.95;12.32;;;;;;;;;;5007134;28;20522;-69
2023/07/09 13:22:13;;;;;;;28.30;12.23;;;;;;;;;;5028052;28;20034;-68
2023/07/09 13:24:38;;;;;;;27.95;11.07;;;;;;;;;;4993642;28;20045;-69
2023/07/09 13:27:05;;;;;;;21.48;10.55;;;;;;;;;;5028959;28;20119;-68
2023/07/09 13:29:31;;;;;;;21.98;9.60;;;;;;;;;;5012859;28;20037;-69
2023/07/09 13:31:57;;;;;;;18.63;9.20;;;;;;;;;;5016290;28;20041;-68
2023/07/09 13:34:24;;;;;;;20.88;9.45;;;;;;;;;;5011937;28;20174;-69
2023/07/09 13:36:50;;;;;;;17.48;8.60;;;;;;;;;;5016069;28;20145;-66
2023/07/09 13:39:16;;;;;;;17.08;8.15;;;;;;;;;;5016986;28;20037;-66
2023/07/09 13:41:45;;;;;;;18.00;8.20;;;;;;;;;;5016254;28;20044;-68
2023/07/09 13:44:18;;;;;;;18.17;8.43;;;;;;;;;;5012006;28;20060;-68
2023/07/09 13:46:44;;;;;;;21.08;8.30;;;;;;;;;;5010443;28;20110;-66
2023/07/09 13:49:10;;;;;;;18.73;8.18;;;;;;;;;;5014564;28;20675;-67
2023/07/09 13:51:36;;;;;;;17.20;8.00;;;;;;;;;;5012114;28;20051;-66
2023/07/09 13:54:06;;;;;;;19.85;8.15;;;;;;;;;;5014912;28;20037;-66
2023/07/09 13:56:33;;;;;;;21.63;7.95;;;;;;;;;;5043398;28;20533;-68
2023/07/09 13:58:59;;;;;;;17.48;7.95;;;;;;;;;;5012759;28;20033;-69
2023/07/09 14:01:24;;;;;;;18.35;8.10;;;;;;;;;;5013155;28;20033;-72
2023/07/09 14:03:50;;;;;;;19.70;8.52;;;;;;;;;;5042669;28;20044;-70
2023/07/09 14:06:16;;;;;;;16.95;7.72;;;;;;;;;;5014758;28;20056;-69
2023/07/09 14:08:42;;;;;;;14.40;7.47;;;;;;;;;;5014686;28;20029;-70
2023/07/09 14:11:11;;;;;;;15.18;7.90;;;;;;;;;;5011777;28;20034;-69
2023/07/09 14:13:36;;;;;;;13.77;6.65;;;;;;;;;;5014361;28;20043;-70
2023/07/09 14:16:03;;;;;;;14.63;7.13;;;;;;;;;;5014434;28;20496;-71
2023/07/09 14:18:28;;;;;;;16.58;7.38;;;;;;;;;;5045647;28;20703;-68
2023/07/09 14:20:54;;;;;;;14.05;7.32;;;;;;;;;;5013341;28;20037;-67
2023/07/09 14:23:19;;;;;;;16.20;7.47;;;;;;;;;;5010417;28;20048;-71
2023/07/09 14:25:45;;;;;;;17.20;7.22;;;;;;;;;;5014527;28;20090;-69
2023/07/09 14:28:15;;;;;;;15.60;7.40;;;;;;;;;;5013806;28;20077;-69
2023/07/09 14:30:45;;;;;;;17.10;8.02;;;;;;;;;;5012293;28;20067;-68